createdAt,value
2023-04-12T00:01:34.876Z,100558.83
2023-04-12T00:04:06.130Z,100573.30
2023-04-12T00:06:35.314Z,100582.34
2023-04-12T00:09:04.444Z,100594.70
2023-04-12T00:11:33.384Z,100605.71
2023-04-12T00:14:01.601Z,100624.60
2023-04-12T00:16:33.993Z,100640.52
2023-04-12T00:19:03.964Z,100654.84
2023-04-12T00:21:32.600Z,100673.91
2023-04-12T00:24:01.603Z,100688.77
2023-04-12T00:26:30.321Z,100705.20
2023-04-12T00:28:58.910Z,100723.95
2023-04-12T00:31:28.370Z,100741.77
2023-04-12T00:33:56.766Z,100766.47
2023-04-12T00:36:27.033Z,100790.34
2023-04-12T00:38:55.787Z,100818.04
2023-04-12T00:41:24.511Z,100854.89
2023-04-12T00:43:53.310Z,100895.34
2023-04-12T00:46:21.607Z,100957.78
2023-04-12T00:48:51.154Z,101084.55
2023-04-12T00:51:22.494Z,101269.99
2023-04-12T00:53:50.800Z,101358.85
2023-04-12T00:58:23.906Z,101497.73
2023-04-12T01:00:55.493Z,101524.05
2023-04-12T01:03:27.179Z,101382.92
2023-04-12T01:06:29.202Z,101290.27
2023-04-12T01:09:10.938Z,101238.48
2023-04-12T01:11:45.368Z,101198.15
2023-04-12T01:14:28.282Z,101178.11
2023-04-12T01:16:58.152Z,101164.92
2023-04-12T01:19:34.483Z,101144.52
2023-04-12T01:22:23.195Z,101132.26
2023-04-12T01:25:11.966Z,101118.40
2023-04-12T01:27:46.456Z,101102.24
2023-04-12T01:30:15.431Z,101086.95
2023-04-12T01:32:50.353Z,101082.57
2023-04-12T01:35:18.913Z,101077.32
2023-04-12T01:37:45.900Z,101069.58
2023-04-12T01:40:13.082Z,101059.92
2023-04-12T01:42:40.300Z,101044.64
2023-04-12T01:45:10.842Z,101012.41
2023-04-12T01:47:37.808Z,101003.10
2023-04-12T01:50:25.855Z,100998.91
2023-04-12T01:53:03.309Z,100997.01
2023-04-12T01:55:32.306Z,100994.20
2023-04-12T01:57:59.266Z,100989.62
2023-04-12T02:00:26.149Z,100986.30
2023-04-12T02:02:54.168Z,100986.86
2023-04-12T02:05:21.250Z,100980.95
2023-04-12T02:07:48.325Z,100973.92
2023-04-12T02:10:30.182Z,100965.54
2023-04-12T02:13:00.880Z,100962.92
2023-04-12T02:15:28.386Z,100954.33
2023-04-12T02:17:58.932Z,100946.95
2023-04-12T02:20:26.531Z,100941.34
2023-04-12T02:22:54.167Z,100933.77
2023-04-12T02:25:26.837Z,100927.61
2023-04-12T02:27:54.464Z,100922.16
2023-04-12T02:30:22.448Z,100916.75
2023-04-12T02:32:53.206Z,100910.46
2023-04-12T02:35:24.499Z,100909.40
2023-04-12T02:37:57.420Z,100905.88
2023-04-12T02:40:28.291Z,100903.98
2023-04-12T02:42:55.153Z,100902.48
2023-04-12T02:45:25.928Z,100896.70
2023-04-12T02:47:53.662Z,100894.13
2023-04-12T02:50:24.234Z,100894.68
2023-04-12T02:52:57.971Z,100895.25
2023-04-12T02:55:25.831Z,100891.23
2023-04-12T02:57:54.516Z,100883.17
2023-04-12T03:00:23.534Z,100883.52
2023-04-12T03:02:54.815Z,100886.54
2023-04-12T03:05:25.611Z,100883.19
2023-04-12T03:07:54.171Z,100887.61
2023-04-12T03:10:26.027Z,100887.63
2023-04-12T03:13:00.537Z,100891.16
2023-04-12T03:15:39.755Z,100891.14
2023-04-12T03:18:07.062Z,100890.64
2023-04-12T03:20:44.735Z,100892.22
2023-04-12T03:23:14.010Z,100894.50
2023-04-12T03:25:44.483Z,100896.80
2023-04-12T03:28:38.679Z,100899.29
2023-04-12T03:31:07.289Z,100899.27
2023-04-12T03:33:40.457Z,100902.63
2023-04-12T03:36:11.132Z,100899.46
2023-04-12T03:38:38.484Z,100901.79
2023-04-12T03:41:06.711Z,100908.11
2023-04-12T03:43:37.715Z,100907.09
2023-04-12T03:46:10.455Z,100910.57
2023-04-12T03:48:38.744Z,100909.84
2023-04-12T03:51:07.325Z,100912.70
2023-04-12T03:53:35.303Z,100915.86
2023-04-12T03:56:02.751Z,100916.73
2023-04-12T04:06:09.565Z,100938.20
2023-04-12T04:08:38.882Z,100957.07
2023-04-12T04:11:09.029Z,100952.10
2023-04-12T04:13:43.353Z,100954.91
2023-04-12T04:16:13.108Z,100950.30
2023-04-12T04:18:42.146Z,100955.16
2023-04-12T04:21:15.302Z,100957.05
2023-04-12T04:23:48.213Z,100956.70
2023-04-12T04:26:20.576Z,100956.02
2023-04-12T04:29:02.358Z,100959.16
2023-04-12T04:31:36.661Z,100959.85
2023-04-12T04:34:06.872Z,100964.05
2023-04-12T04:36:38.535Z,100965.40
2023-04-12T04:39:16.120Z,100970.50
2023-04-12T04:41:46.847Z,100967.85
2023-04-12T04:44:26.069Z,100975.08
2023-04-12T04:46:59.485Z,100976.97
2023-04-12T04:49:34.139Z,100980.53
2023-04-12T04:52:09.770Z,100980.87
2023-04-12T04:54:38.352Z,100978.59
2023-04-12T04:57:11.792Z,100979.66
2023-04-12T04:59:40.503Z,100979.65
2023-04-12T05:02:18.672Z,100984.59
2023-04-12T05:04:51.568Z,100984.08
2023-04-12T05:15:08.808Z,101002.59
2023-04-12T05:17:41.238Z,101019.19
2023-04-12T05:20:12.544Z,101013.84
2023-04-12T05:22:41.100Z,101014.67
2023-04-12T05:25:09.869Z,101010.60
2023-04-12T05:27:44.135Z,101014.08
2023-04-12T05:30:14.780Z,101015.23
2023-04-12T05:32:45.681Z,101011.35
2023-04-12T05:35:15.653Z,101016.27
2023-04-12T05:37:44.466Z,101014.30
2023-04-12T05:40:16.402Z,101013.52
2023-04-12T05:42:46.037Z,101017.67
2023-04-12T05:45:15.930Z,101021.85
2023-04-12T05:47:45.935Z,101021.61
2023-04-12T05:50:14.856Z,101021.77
2023-04-12T05:52:44.847Z,101024.02
2023-04-12T05:55:13.852Z,101025.56
2023-04-12T05:57:44.708Z,101030.09
2023-04-12T06:00:17.606Z,101033.69
2023-04-12T06:02:50.938Z,101040.98
2023-04-12T06:05:23.058Z,101044.77
2023-04-12T06:07:51.607Z,101048.41
2023-04-12T06:10:20.241Z,101052.61
2023-04-12T06:12:51.949Z,101055.70
2023-04-12T06:15:22.414Z,101058.07
2023-04-12T06:17:56.878Z,101066.24
2023-04-12T06:20:25.735Z,101068.54
2023-04-12T06:30:34.291Z,101094.59
2023-04-12T06:33:02.919Z,101127.02
2023-04-12T06:35:31.472Z,101118.52
2023-04-12T06:37:59.968Z,101113.02
2023-04-12T06:40:28.281Z,101113.52
2023-04-12T06:42:57.722Z,101114.59
2023-04-12T06:45:26.375Z,101115.83
2023-04-12T06:47:57.276Z,101121.08
2023-04-12T06:50:26.602Z,101123.48
2023-04-12T06:52:56.891Z,101122.55
2023-04-12T06:55:29.250Z,101128.33
2023-04-12T06:57:57.599Z,101133.61
2023-04-12T07:00:26.407Z,101136.59
2023-04-12T07:02:55.282Z,101136.61
2023-04-12T07:05:23.723Z,101141.00
2023-04-12T07:07:53.696Z,101144.20
2023-04-12T07:10:21.967Z,101144.04
2023-04-12T07:12:50.245Z,101149.27
2023-04-12T07:15:20.072Z,101153.27
2023-04-12T07:17:49.408Z,101151.68
2023-04-12T07:20:18.150Z,101155.41
2023-04-12T07:22:52.127Z,101157.91
2023-04-12T07:25:21.307Z,101162.39
2023-04-12T07:27:51.714Z,101164.73
2023-04-12T07:30:21.199Z,101170.90
2023-04-12T07:32:49.598Z,101172.64
2023-04-12T07:35:25.001Z,101175.70
2023-04-12T07:37:54.083Z,101180.63
2023-04-12T07:40:22.340Z,101187.66
2023-04-12T07:42:54.151Z,101192.90
2023-04-12T07:45:25.647Z,101199.48
2023-04-12T07:48:00.211Z,101205.55
2023-04-12T07:50:29.718Z,101212.48
2023-04-12T07:52:59.710Z,101219.02
2023-04-12T07:55:27.938Z,101228.80
2023-04-12T07:57:57.191Z,101236.96
2023-04-12T08:00:33.157Z,101244.20
2023-04-12T08:03:01.866Z,101251.71
2023-04-12T08:05:30.866Z,101265.30
2023-04-12T08:08:03.742Z,101274.49
2023-04-12T08:10:32.312Z,101277.23
2023-04-12T08:13:00.540Z,101279.36
2023-04-12T08:15:32.814Z,101283.91
2023-04-12T08:18:02.816Z,101293.38
2023-04-12T08:20:32.051Z,101295.41
2023-04-12T08:23:04.503Z,101302.80
2023-04-12T08:25:32.843Z,101311.80
2023-04-12T08:28:01.122Z,101318.66
2023-04-12T08:30:35.530Z,101330.77
2023-04-12T08:33:03.938Z,101340.58
2023-04-12T08:35:33.081Z,101355.58
2023-04-12T08:38:07.826Z,101371.17
2023-04-12T08:40:37.650Z,101378.61
2023-04-12T08:43:08.447Z,101382.04
2023-04-12T08:45:36.952Z,101394.33
2023-04-12T08:48:06.406Z,101394.85
2023-04-12T08:50:36.323Z,101393.90
2023-04-12T08:53:05.374Z,101391.32
2023-04-12T08:55:34.192Z,101393.80
2023-04-12T08:58:07.568Z,101394.68
2023-04-12T09:00:37.297Z,101391.04
2023-04-12T09:03:10.952Z,101395.09
2023-04-12T09:05:39.510Z,101394.39
2023-04-12T09:08:07.813Z,101398.36
2023-04-12T09:10:38.196Z,101399.06
2023-04-12T09:13:06.779Z,101403.23
2023-04-12T09:15:35.231Z,101408.61
2023-04-12T09:18:11.425Z,101411.81
2023-04-12T09:20:40.535Z,101422.98
2023-04-12T09:23:19.543Z,101423.65
2023-04-12T09:25:53.057Z,101426.19
2023-04-12T09:28:26.128Z,101428.36
2023-04-12T09:30:55.675Z,101436.83
2023-04-12T09:33:36.548Z,101441.31
2023-04-12T09:36:06.223Z,101441.50
2023-04-12T09:38:37.173Z,101435.51
2023-04-12T09:41:27.175Z,101435.54
2023-04-12T09:43:56.388Z,101445.35
2023-04-12T09:46:25.159Z,101449.41
2023-04-12T09:48:55.423Z,101462.45
2023-04-12T09:51:28.964Z,101471.04
2023-04-12T09:54:02.207Z,101467.23
2023-04-12T09:56:32.560Z,101461.86
2023-04-12T09:59:03.884Z,101451.91
2023-04-12T10:01:36.053Z,101452.38
2023-04-12T10:04:06.163Z,101453.06
2023-04-12T10:06:42.138Z,101452.16
2023-04-12T10:09:10.448Z,101447.91
2023-04-12T10:11:42.157Z,101448.37
2023-04-12T10:14:12.100Z,101450.09
2023-04-12T10:16:45.342Z,101454.70
2023-04-12T10:19:13.753Z,101462.02
2023-04-12T10:21:42.845Z,101458.88
2023-04-12T10:24:11.362Z,101452.28
2023-04-12T10:26:46.784Z,101447.27
2023-04-12T10:29:31.148Z,101441.49
2023-04-12T10:32:24.051Z,101439.55
2023-04-12T10:34:58.849Z,101440.71
2023-04-12T10:37:59.677Z,101441.98
2023-04-12T10:40:32.494Z,101450.11
2023-04-12T10:43:20.073Z,101450.55
2023-04-12T10:45:49.891Z,101456.16
2023-04-12T10:48:39.241Z,101450.55
2023-04-12T10:51:25.616Z,101447.83
2023-04-12T10:54:08.080Z,101445.61
2023-04-12T10:56:44.204Z,101440.98
2023-04-12T10:59:34.157Z,101448.83
2023-04-12T11:02:13.252Z,101453.69
2023-04-12T11:05:04.917Z,101472.94
2023-04-12T11:07:53.228Z,101497.88
2023-04-12T11:10:41.077Z,101511.19
2023-04-12T11:13:14.803Z,101511.45
2023-04-12T11:15:44.161Z,101500.33
2023-04-12T11:18:15.839Z,101492.73
2023-04-12T11:20:44.126Z,101478.55
2023-04-12T11:23:16.456Z,101469.75
2023-04-12T11:25:49.960Z,101461.78
2023-04-12T11:28:28.879Z,101446.56
2023-04-12T11:31:00.034Z,101441.35
2023-04-12T11:33:46.702Z,101427.77
2023-04-12T11:36:15.488Z,101416.23
2023-04-12T11:38:47.402Z,101397.25
2023-04-12T11:41:16.999Z,101380.17
2023-04-12T11:43:47.069Z,101369.16
2023-04-12T11:46:16.662Z,101361.08
2023-04-12T11:48:48.211Z,101354.75
2023-04-12T11:51:25.547Z,101334.87
2023-04-12T11:53:56.263Z,101325.58
2023-04-12T11:56:30.059Z,101318.79
2023-04-12T11:58:58.820Z,101314.08
2023-04-12T12:01:29.118Z,101314.77
2023-04-12T12:03:58.070Z,101314.61
2023-04-12T12:06:28.181Z,101311.91
2023-04-12T12:08:56.776Z,101299.91
2023-04-12T12:11:26.917Z,101289.90
2023-04-12T12:13:56.115Z,101279.83
2023-04-12T12:16:28.641Z,101270.14
2023-04-12T12:18:59.169Z,101262.28
2023-04-12T12:21:27.869Z,101252.31
2023-04-12T12:23:57.286Z,101243.35
2023-04-12T12:26:28.211Z,101236.88
2023-04-12T12:28:57.625Z,101235.45
2023-04-12T12:31:28.798Z,101230.64
2023-04-12T12:34:00.086Z,101222.39
2023-04-12T12:36:36.493Z,101214.59
2023-04-12T12:39:15.625Z,101213.39
2023-04-12T12:41:44.067Z,101214.64
2023-04-12T12:44:15.749Z,101213.95
2023-04-12T12:46:54.116Z,101212.02
2023-04-12T12:49:25.495Z,101216.79
2023-04-12T12:51:55.154Z,101213.13
2023-04-12T12:54:39.301Z,101210.52
2023-04-12T12:57:09.336Z,101204.64
2023-04-12T12:59:37.796Z,101190.30
2023-04-12T13:02:07.904Z,101181.19
2023-04-12T13:04:39.474Z,101172.04
2023-04-12T13:07:09.150Z,101164.07
2023-04-12T13:09:37.648Z,101165.18
2023-04-12T13:12:08.072Z,101164.91
2023-04-12T13:15:53.028Z,101146.53
2023-04-12T13:18:21.475Z,101179.96
2023-04-12T13:20:52.261Z,101178.75
2023-04-12T13:23:21.019Z,101179.35
2023-04-12T13:25:49.237Z,101177.02
2023-04-12T13:28:17.569Z,101169.00
2023-04-12T13:30:48.937Z,101162.58
2023-04-12T13:33:21.553Z,101151.23
2023-04-12T13:35:51.240Z,101149.18
2023-04-12T13:38:19.690Z,101141.29
2023-04-12T13:40:48.153Z,101145.81
2023-04-12T13:43:17.177Z,101147.60
2023-04-12T13:45:51.288Z,101145.15
2023-04-12T13:48:20.152Z,101143.42
2023-04-12T13:50:50.765Z,101133.26
2023-04-12T13:53:27.446Z,101132.69
2023-04-12T13:55:55.967Z,101128.91
2023-04-12T13:58:26.104Z,101127.56
2023-04-12T14:00:58.902Z,101128.03
2023-04-12T14:03:29.405Z,101135.05
2023-04-12T14:05:57.951Z,101138.92
2023-04-12T14:08:27.584Z,101140.17
2023-04-12T14:10:57.093Z,101136.86
2023-04-12T14:13:26.716Z,101134.02
2023-04-12T14:15:55.277Z,101132.92
2023-04-12T14:18:26.721Z,101132.08
2023-04-12T14:20:55.379Z,101138.56
2023-04-12T14:23:26.821Z,101146.63
2023-04-12T14:25:55.760Z,101144.17
2023-04-12T14:28:28.043Z,101144.16
2023-04-12T14:30:58.174Z,101144.05
2023-04-12T14:33:28.382Z,101147.42
2023-04-12T14:35:58.055Z,101149.19
2023-04-12T14:38:30.049Z,101151.51
2023-04-12T14:40:58.861Z,101146.03
2023-04-12T14:43:27.629Z,101140.38
2023-04-12T14:45:56.590Z,101115.31
2023-04-12T14:48:25.592Z,101121.52
2023-04-12T14:50:55.808Z,101124.88
2023-04-12T14:53:24.617Z,101126.48
2023-04-12T14:55:53.353Z,101130.20
2023-04-12T14:58:21.562Z,101128.95
2023-04-12T15:00:50.626Z,101121.52
2023-04-12T15:03:21.363Z,101118.52
2023-04-12T15:05:50.276Z,101115.62
2023-04-12T15:08:20.150Z,101114.09
2023-04-12T15:10:48.807Z,101110.42
2023-04-12T15:13:17.156Z,101103.73
2023-04-12T15:15:47.585Z,101112.91
2023-04-12T15:18:16.531Z,101112.59
2023-04-12T15:20:45.136Z,101108.77
2023-04-12T15:23:16.007Z,101113.60
2023-04-12T15:25:44.674Z,101119.06
2023-04-12T15:28:13.476Z,101116.08
2023-04-12T15:30:42.551Z,101110.98
2023-04-12T15:33:11.566Z,101104.01
2023-04-12T15:35:40.349Z,101093.80
2023-04-12T15:38:14.507Z,101089.23
2023-04-12T15:40:45.964Z,101091.54
2023-04-12T15:43:14.569Z,101084.30
2023-04-12T15:45:45.512Z,101082.54
2023-04-12T15:48:14.518Z,101080.64
2023-04-12T15:50:43.086Z,101081.17
2023-04-12T15:53:12.872Z,101085.97
2023-04-12T15:55:44.528Z,101084.73
2023-04-12T15:58:13.932Z,101081.04
2023-04-12T16:00:48.269Z,101086.32
2023-04-12T16:03:19.801Z,101086.52
2023-04-12T16:05:54.709Z,101092.17
2023-04-12T16:08:27.697Z,101100.10
2023-04-12T16:10:57.052Z,101095.66
2023-04-12T16:13:25.777Z,101089.12
2023-04-12T16:16:01.038Z,101094.98
2023-04-12T16:18:31.637Z,101101.86
2023-04-12T16:21:00.064Z,101108.56
2023-04-12T16:23:29.686Z,101112.63
2023-04-12T16:26:00.271Z,101113.16
2023-04-12T16:28:29.833Z,101106.66
2023-04-12T16:30:58.470Z,101101.04
2023-04-12T16:33:28.315Z,101093.64
2023-04-12T16:35:56.869Z,101089.27
2023-04-12T16:38:25.130Z,101097.92
2023-04-12T16:40:53.384Z,101096.36
2023-04-12T16:43:22.654Z,101096.02
2023-04-12T16:45:50.930Z,101094.11
2023-04-12T16:48:22.825Z,101095.16
2023-04-12T16:50:51.081Z,101092.90
2023-04-12T16:53:24.645Z,101099.08
2023-04-12T16:55:52.947Z,101097.68
2023-04-12T16:58:21.338Z,101094.19
2023-04-12T17:00:57.921Z,101103.02
2023-04-12T17:03:26.976Z,101104.27
2023-04-12T17:05:55.553Z,101104.48
2023-04-12T17:08:25.579Z,101100.65
2023-04-12T17:10:54.929Z,101102.09
2023-04-12T17:13:23.364Z,101105.48
2023-04-12T17:15:53.303Z,101106.96
2023-04-12T17:18:23.800Z,101093.52
2023-04-12T17:20:52.090Z,101080.95
2023-04-12T17:23:20.987Z,101074.92
2023-04-12T17:25:50.617Z,101066.92
2023-04-12T17:28:19.858Z,101065.27
2023-04-12T17:30:49.928Z,101062.23
2023-04-12T17:33:18.863Z,101059.36
2023-04-12T17:35:47.656Z,101058.77
2023-04-12T17:38:17.083Z,101054.25
2023-04-12T17:40:47.071Z,101058.77
2023-04-12T17:43:16.028Z,101055.86
2023-04-12T17:45:44.665Z,101050.67
2023-04-12T17:48:15.015Z,101051.25
2023-04-12T17:50:45.593Z,101058.83
2023-04-12T17:53:18.448Z,101067.65
2023-04-12T17:55:50.189Z,101074.45
2023-04-12T17:58:19.266Z,101079.73
2023-04-12T18:00:50.670Z,101086.79
2023-04-12T18:03:20.480Z,101091.54
2023-04-12T18:05:49.115Z,101097.89
2023-04-12T18:08:19.945Z,101103.52
2023-04-12T18:10:49.862Z,101106.69
2023-04-12T18:13:19.817Z,101111.82
2023-04-12T18:15:48.489Z,101112.56
2023-04-12T18:18:20.571Z,101112.41
2023-04-12T18:20:49.220Z,101107.85
2023-04-12T18:23:17.757Z,101109.26
2023-04-12T18:25:48.328Z,101120.90
2023-04-12T18:28:18.098Z,101128.45
2023-04-12T18:30:46.750Z,101128.60
2023-04-12T18:33:19.656Z,101134.73
2023-04-12T18:35:49.151Z,101141.04
2023-04-12T18:38:17.777Z,101145.95
2023-04-12T18:40:46.218Z,101150.17
2023-04-12T18:43:14.709Z,101154.22
2023-04-12T18:45:43.502Z,101159.66
2023-04-12T18:48:16.569Z,101165.95
2023-04-12T18:50:47.596Z,101178.42
2023-04-12T18:53:16.465Z,101184.16
2023-04-12T18:55:49.365Z,101181.26
2023-04-12T18:58:20.973Z,101181.00
2023-04-12T19:00:51.062Z,101179.55
2023-04-12T19:03:21.188Z,101184.44
2023-04-12T19:05:49.686Z,101181.41
2023-04-12T19:08:18.130Z,101181.19
2023-04-12T19:10:52.260Z,101186.96
2023-04-12T19:13:23.561Z,101192.57
2023-04-12T19:15:55.900Z,101199.06
2023-04-12T19:18:27.115Z,101201.88
2023-04-12T19:20:56.549Z,101204.83
2023-04-12T19:23:25.757Z,101206.38
2023-04-12T19:25:57.128Z,101206.69
2023-04-12T19:28:27.159Z,101207.31
2023-04-12T19:30:59.863Z,101211.86
2023-04-12T19:33:32.188Z,101214.28
2023-04-12T19:36:00.688Z,101215.15
2023-04-12T19:38:29.276Z,101219.73
2023-04-12T19:40:57.670Z,101223.95
2023-04-12T19:43:26.203Z,101228.89
2023-04-12T19:45:54.953Z,101233.97
2023-04-12T19:48:23.381Z,101232.02
2023-04-12T19:50:55.060Z,101229.20
2023-04-12T19:53:24.561Z,101230.05
2023-04-12T19:55:57.623Z,101239.05
2023-04-12T19:58:26.669Z,101240.98
2023-04-12T20:00:55.962Z,101239.39
2023-04-12T20:03:25.461Z,101242.36
2023-04-12T20:05:54.440Z,101238.82
2023-04-12T20:08:23.701Z,101238.11
2023-04-12T20:10:52.182Z,101245.84
2023-04-12T20:13:22.951Z,101246.20
2023-04-12T20:15:52.922Z,101246.89
2023-04-12T20:18:22.016Z,101251.27
2023-04-12T20:20:52.242Z,101256.90
2023-04-12T20:23:21.467Z,101262.71
2023-04-12T20:25:49.943Z,101264.29
2023-04-12T20:28:19.880Z,101271.18
2023-04-12T20:30:48.790Z,101270.80
2023-04-12T20:33:17.366Z,101275.20
2023-04-12T20:35:46.014Z,101279.60
2023-04-12T20:38:15.347Z,101281.55
2023-04-12T20:40:45.335Z,101279.48
2023-04-12T20:43:13.721Z,101281.08
2023-04-12T20:45:41.992Z,101283.41
2023-04-12T20:48:11.462Z,101290.67
2023-04-12T20:50:41.206Z,101292.27
2023-04-12T20:53:15.450Z,101288.63
2023-04-12T20:55:45.717Z,101295.37
2023-04-12T20:58:14.630Z,101301.20
2023-04-12T21:00:43.023Z,101304.05
2023-04-12T21:03:12.775Z,101307.42
2023-04-12T21:05:42.113Z,101310.97
2023-04-12T21:08:14.242Z,101319.79
2023-04-12T21:10:43.005Z,101319.61
2023-04-12T21:13:12.860Z,101319.11
2023-04-12T21:15:43.516Z,101321.55
2023-04-12T21:18:12.286Z,101327.90
2023-04-12T21:20:40.640Z,101331.80
2023-04-12T21:23:10.114Z,101337.64
2023-04-12T21:25:39.117Z,101336.59
2023-04-12T21:28:07.451Z,101341.36
2023-04-12T21:30:37.260Z,101345.92
2023-04-12T21:33:05.899Z,101350.88
2023-04-12T21:35:34.619Z,101353.37
2023-04-12T21:38:03.818Z,101353.90
2023-04-12T21:40:32.135Z,101359.70
2023-04-12T21:43:01.734Z,101362.51
2023-04-12T21:45:30.492Z,101365.87
2023-04-12T21:47:59.924Z,101368.33
2023-04-12T21:50:28.715Z,101370.80
2023-04-12T21:52:56.955Z,101376.30
2023-04-12T21:55:28.558Z,101381.23
2023-04-12T21:57:57.372Z,101386.89
2023-04-12T22:00:28.542Z,101394.16
2023-04-12T22:02:57.060Z,101397.19
2023-04-12T22:05:27.986Z,101399.52
2023-04-12T22:07:58.137Z,101395.35
2023-04-12T22:10:27.534Z,101390.87
2023-04-12T22:12:55.968Z,101384.48
2023-04-12T22:15:28.746Z,101373.95
2023-04-12T22:17:57.434Z,101370.08
2023-04-12T22:20:31.360Z,101377.27
2023-04-12T22:23:00.209Z,101371.05
2023-04-12T22:25:29.849Z,101361.15
2023-04-12T22:27:58.395Z,101356.90
2023-04-12T22:30:27.495Z,101358.12
2023-04-12T22:32:58.269Z,101358.79
2023-04-12T22:35:27.247Z,101362.09
2023-04-12T22:38:01.605Z,101367.14
2023-04-12T22:40:30.579Z,101377.27
2023-04-12T22:42:58.859Z,101378.08
2023-04-12T22:45:28.930Z,101387.47
2023-04-12T22:47:57.354Z,101389.14
2023-04-12T22:50:26.229Z,101386.59
2023-04-12T22:52:57.966Z,101385.63
2023-04-12T22:55:26.768Z,101386.02
2023-04-12T22:57:56.272Z,101384.66
2023-04-12T23:00:25.445Z,101381.58
2023-04-12T23:02:54.308Z,101364.21
2023-04-12T23:05:22.985Z,101353.54
2023-04-12T23:07:53.518Z,101355.65
2023-04-12T23:10:22.648Z,101362.28
2023-04-12T23:12:53.759Z,101362.27
2023-04-12T23:15:24.318Z,101363.13
2023-04-12T23:17:54.999Z,101356.27
2023-04-12T23:20:23.308Z,101356.80
2023-04-12T23:22:58.197Z,101359.94
2023-04-12T23:25:41.935Z,101368.19
2023-04-12T23:28:14.911Z,101379.63
2023-04-12T23:30:43.783Z,101377.52
2023-04-12T23:33:12.619Z,101380.66
2023-04-12T23:35:41.474Z,101374.01
2023-04-12T23:38:23.511Z,101370.17
2023-04-12T23:40:54.418Z,101371.93
2023-04-12T23:43:23.856Z,101372.52
2023-04-12T23:45:52.696Z,101373.48
2023-04-12T23:48:21.986Z,101374.64
2023-04-12T23:50:51.349Z,101376.46
2023-04-12T23:53:21.839Z,101376.36
2023-04-12T23:55:52.065Z,101372.52
2023-04-12T23:58:20.986Z,101369.80
